Time;durP1;ratioP1;P1;durP2;ratioP2;P2;SDS_P1;SDS_P2;PMS_P1;PMS_P2;Temp;Humidity;BMP_temperature;BMP_pressure;BME280_temperature;BME280_humidity;BME280_pressure;Samples;Min_cycle;Max_cycle;Signal;HPM_P1;HPM_P2
2022/06/15 00:02:05;;;;;;;;;9.25;9.25;;;;;20.06;46.58;100711.66;5077336;28;46361;-69
2022/06/15 00:04:31;;;;;;;;;5.00;5.00;;;;;20.04;46.13;100710.94;5077007;28;45402;-69
2022/06/15 00:06:56;;;;;;;;;8.50;8.50;;;;;19.97;46.11;100707.03;5077392;28;45315;-67
2022/06/15 00:09:22;;;;;;;;;10.50;9.50;;;;;19.91;46.14;100708.34;5077024;28;45270;-69
2022/06/15 00:11:47;;;;;;;;;8.50;8.50;;;;;19.87;46.52;100701.53;5076570;28;45471;-67
2022/06/15 00:14:20;;;;;;;;;10.25;10.00;;;;;19.87;46.91;100717.53;5076660;28;45394;-67
2022/06/15 00:16:45;;;;;;;;;9.75;8.50;;;;;19.83;46.64;100711.59;5077161;27;45413;-69
2022/06/15 00:19:11;;;;;;;;;13.50;11.25;;;;;19.80;47.19;100714.50;5076948;28;45337;-68
2022/06/15 00:21:36;;;;;;;;;8.00;8.00;;;;;19.74;46.81;100706.13;5075205;28;47051;-67
2022/06/15 00:24:02;;;;;;;;;9.75;8.75;;;;;19.73;47.08;100707.09;5076601;28;45443;-68
2022/06/15 00:26:28;;;;;;;;;10.25;8.75;;;;;19.72;47.20;100714.25;5076806;27;45378;-68
2022/06/15 00:28:54;;;;;;;;;6.50;4.75;;;;;19.67;47.21;100711.09;5076766;27;45367;-68
2022/06/15 00:31:20;;;;;;;;;7.50;7.50;;;;;19.63;47.08;100707.78;5074957;28;46185;-69
2022/06/15 00:33:46;;;;;;;;;7.75;6.25;;;;;19.56;47.60;100698.56;5075340;28;45848;-70
2022/06/15 00:36:15;;;;;;;;;8.25;8.25;;;;;19.55;47.34;100708.38;5076498;28;45208;-69
2022/06/15 00:38:45;;;;;;;;;8.00;8.00;;;;;19.54;47.34;100706.66;5076618;27;45189;-68
2022/06/15 00:41:15;;;;;;;;;8.00;8.00;;;;;19.47;47.44;100699.25;5076265;27;45405;-68
2022/06/15 00:43:44;;;;;;;;;10.50;10.00;;;;;19.50;47.75;100713.19;5076304;27;45192;-68
2022/06/15 00:46:34;;;;;;;;;7.25;7.25;;;;;19.48;47.92;100717.81;5074982;28;45380;-68
2022/06/15 00:49:15;;;;;;;;;8.50;7.00;;;;;19.41;48.11;100706.75;5076366;28;45333;-68
2022/06/15 00:51:41;;;;;;;;;11.00;9.25;;;;;19.35;48.33;100709.91;5076203;27;46105;-69
2022/06/15 00:54:07;;;;;;;;;9.00;9.00;;;;;19.33;48.47;100711.81;5074675;28;45641;-67
2022/06/15 00:56:35;;;;;;;;;9.50;9.00;;;;;19.33;48.81;100716.28;5076409;27;45294;-67
2022/06/15 00:59:07;;;;;;;;;9.50;9.50;;;;;19.30;48.50;100719.19;5074992;28;45560;-67
2022/06/15 01:01:32;;;;;;;;;11.75;9.50;;;;;19.26;48.82;100718.59;5076097;27;45475;-68
2022/06/15 01:04:01;;;;;;;;;12.25;9.75;;;;;19.25;48.83;100716.88;5076018;28;45211;-68
2022/06/15 01:06:35;;;;;;;;;8.50;8.50;;;;;19.20;49.58;100713.72;5076258;27;45397;-68
2022/06/15 01:09:21;;;;;;;;;9.75;8.50;;;;;19.15;49.85;100715.88;5074714;28;45485;-67
2022/06/15 01:11:46;;;;;;;;;7.00;7.00;;;;;19.10;49.93;100713.53;5075848;27;46360;-67
2022/06/15 01:14:26;;;;;;;;;8.25;8.25;;;;;19.06;49.91;100718.22;5075724;28;45419;-70
2022/06/15 01:17:04;;;;;;;;;9.00;9.00;;;;;19.02;50.27;100719.44;5076604;28;45454;-71
2022/06/15 01:19:29;;;;;;;;;8.25;7.75;;;;;18.96;49.91;100717.19;5074615;28;45252;-68
2022/06/15 01:22:12;;;;;;;;;7.75;7.75;;;;;18.91;50.56;100714.88;5075796;28;46350;-67
2022/06/15 01:24:37;;;;;;;;;10.00;10.00;;;;;18.86;50.75;100719.69;5075802;28;45451;-66
2022/06/15 01:27:18;;;;;;;;;8.75;7.75;;;;;18.82;51.33;100710.22;5074492;28;45346;-67
2022/06/15 01:29:50;;;;;;;;;8.75;8.75;;;;;18.78;51.72;100709.56;5076039;28;45368;-69
2022/06/15 01:32:31;;;;;;;;;5.00;5.00;;;;;18.53;51.47;100675.88;5075614;28;45761;-68
2022/06/15 01:35:03;;;;;;;;;7.75;7.75;;;;;18.68;52.08;100703.22;5074320;28;45354;-68
2022/06/15 01:37:45;;;;;;;;;8.75;8.50;;;;;18.68;52.05;100713.88;5075779;27;45506;-67
2022/06/15 01:40:23;;;;;;;;;4.50;4.50;;;;;18.66;52.10;100710.47;5076135;27;45263;-70
2022/06/15 01:42:57;;;;;;;;;7.00;6.00;;;;;18.62;52.43;100703.66;5075482;28;46151;-68
2022/06/15 01:45:27;;;;;;;;;7.25;7.25;;;;;18.60;52.25;100705.59;5076086;27;45444;-68
2022/06/15 01:47:57;;;;;;;;;8.25;8.25;;;;;18.58;51.82;100700.38;5076159;27;45283;-70
2022/06/15 01:50:27;;;;;;;;;10.25;8.75;;;;;18.54;52.70;100696.22;5075985;27;45473;-68
2022/06/15 01:53:21;;;;;;;;;9.50;8.00;;;;;18.55;52.60;100700.56;5074090;28;46787;-70
2022/06/15 01:55:56;;;;;;;;;11.25;10.00;;;;;18.52;52.16;100695.47;5074365;28;45365;-69
2022/06/15 01:58:25;;;;;;;;;8.00;8.00;;;;;18.47;52.79;100694.94;5075390;27;45440;-69
2022/06/15 02:01:02;;;;;;;;;11.50;8.75;;;;;18.45;52.94;100689.75;5075711;27;45600;-67
2022/06/15 02:03:46;;;;;;;;;8.50;8.50;;;;;18.44;53.05;100688.06;5075355;27;46723;-68
2022/06/15 02:06:36;;;;;;;;;8.50;7.50;;;;;18.40;52.99;100686.56;5075207;27;45291;-69
2022/06/15 02:09:45;;;;;;;;;9.25;7.75;;;;;18.39;53.19;100687.53;5075292;27;45248;-70
2022/06/15 02:12:13;;;;;;;;;9.25;8.75;;;;;18.31;53.79;100676.59;5075165;27;45577;-69
2022/06/15 02:14:44;;;;;;;;;7.00;7.00;;;;;18.29;53.89;100681.16;5074965;27;46322;-70
2022/06/15 02:17:20;;;;;;;;;8.25;8.25;;;;;18.24;53.78;100679.69;5075076;27;45437;-69
2022/06/15 02:19:49;;;;;;;;;7.00;7.00;;;;;18.24;54.16;100677.03;5075146;27;45248;-68
2022/06/15 02:22:20;;;;;;;;;8.75;8.75;;;;;18.17;54.32;100678.41;5075016;27;45525;-68
2022/06/15 02:24:50;;;;;;;;;7.00;7.00;;;;;18.10;54.21;100667.34;5074765;27;45538;-69
2022/06/15 02:27:18;;;;;;;;;10.50;9.00;;;;;18.07;55.07;100675.53;5074959;27;45504;-69
2022/06/15 02:29:47;;;;;;;;;6.00;6.00;;;;;18.05;55.41;100676.63;5074815;27;45397;-69
2022/06/15 02:32:16;;;;;;;;;8.00;8.00;;;;;18.03;54.81;100678.53;5075051;27;45546;-68
2022/06/15 02:34:42;;;;;;;;;7.50;7.50;;;;;17.98;55.55;100675.28;5075012;27;46233;-69
2022/06/15 02:37:09;;;;;;;;;11.00;7.00;;;;;17.95;55.47;100669.22;5074769;28;45330;-66
2022/06/15 02:39:35;;;;;;;;;8.50;8.50;;;;;17.95;55.34;100671.88;5075009;27;45552;-67
2022/06/15 02:42:20;;;;;;;;;9.00;7.50;;;;;17.94;55.76;100672.00;5075004;28;45270;-68
2022/06/15 02:44:48;;;;;;;;;8.25;7.00;;;;;17.83;56.16;100662.09;5074714;27;45665;-69
2022/06/15 02:47:15;;;;;;;;;7.75;7.50;;;;;17.81;55.95;100667.53;5074745;27;45406;-70
2022/06/15 02:49:40;;;;;;;;;8.25;8.00;;;;;17.83;56.51;100674.56;5074582;27;45379;-69
2022/06/15 02:52:09;;;;;;;;;8.50;8.50;;;;;17.80;56.46;100676.47;5074690;27;45562;-68
2022/06/15 02:54:41;;;;;;;;;8.25;7.00;;;;;17.74;56.90;100665.41;5074365;28;46613;-68
2022/06/15 02:57:07;;;;;;;;;10.00;8.75;;;;;17.68;56.54;100661.38;5074731;27;45373;-68
2022/06/15 02:59:33;;;;;;;;;9.75;7.50;;;;;17.72;57.06;100668.19;5074672;27;45356;-68
2022/06/15 03:01:58;;;;;;;;;7.25;7.25;;;;;17.67;56.85;100671.16;5075237;28;45454;-67
2022/06/15 03:04:23;;;;;;;;;10.00;10.00;;;;;17.67;57.26;100667.66;5074819;28;45387;-68
2022/06/15 03:06:49;;;;;;;;;8.00;8.00;;;;;17.66;57.28;100674.75;5074578;28;45369;-68
2022/06/15 03:09:14;;;;;;;;;8.00;8.00;;;;;17.61;57.14;100665.41;5074634;27;45731;-67
2022/06/15 03:11:40;;;;;;;;;9.75;9.75;;;;;17.63;57.23;100674.97;5075969;28;45304;-68
2022/06/15 03:14:06;;;;;;;;;12.75;9.50;;;;;17.62;57.09;100675.09;5077787;27;46215;-69
2022/06/15 03:16:31;;;;;;;;;9.00;9.00;;;;;17.59;57.13;100670.81;5077781;27;45953;-67
2022/06/15 03:18:56;;;;;;;;;8.00;7.00;;;;;17.58;56.94;100669.13;5078251;28;45383;-67
2022/06/15 03:21:22;;;;;;;;;9.50;9.50;;;;;17.58;57.57;100679.75;5077958;28;45387;-68
2022/06/15 03:23:47;;;;;;;;;9.00;9.00;;;;;17.57;57.59;100688.69;5077637;28;46174;-68
2022/06/15 03:26:12;;;;;;;;;7.00;7.00;;;;;17.56;57.45;100694.97;5078088;28;45432;-71
2022/06/15 03:28:38;;;;;;;;;9.25;7.50;;;;;17.56;57.17;100692.31;5077866;27;45326;-69
2022/06/15 03:31:04;;;;;;;;;6.75;6.75;;;;;17.58;57.40;100690.41;5077756;28;45425;-69
2022/06/15 03:33:29;;;;;;;;;9.50;8.00;;;;;17.60;57.39;100691.16;5077843;28;45627;-68
2022/06/15 03:35:55;;;;;;;;;9.25;9.25;;;;;17.62;57.06;100691.91;5077452;27;45356;-68
2022/06/15 03:38:20;;;;;;;;;10.00;10.00;;;;;17.66;57.55;100692.56;5076376;28;45293;-67
2022/06/15 03:40:48;;;;;;;;;10.50;9.00;;;;;17.53;57.12;100660.59;5077718;28;45339;-69
2022/06/15 03:43:15;;;;;;;;;8.00;8.00;;;;;17.68;56.73;100682.66;5077360;27;45519;-69
2022/06/15 03:45:42;;;;;;;;;8.00;8.00;;;;;17.64;57.05;100671.34;5077332;27;45275;-69
2022/06/15 03:48:08;;;;;;;;;8.25;8.00;;;;;17.79;56.93;100692.53;5077414;27;45360;-69
2022/06/15 03:50:34;;;;;;;;;9.00;9.00;;;;;17.78;57.07;100694.38;5077486;27;45446;-67
2022/06/15 03:53:01;;;;;;;;;9.00;9.00;;;;;17.80;56.87;100687.13;5077500;27;47142;-70
2022/06/15 03:55:28;;;;;;;;;12.50;9.75;;;;;17.81;56.85;100682.63;5077500;27;45291;-69
2022/06/15 03:57:54;;;;;;;;;10.25;9.00;;;;;17.83;56.74;100686.03;5077154;28;45271;-68
2022/06/15 04:00:22;;;;;;;;;12.25;11.00;;;;;17.82;56.68;100681.69;5077357;27;45251;-68
2022/06/15 04:02:47;;;;;;;;;12.25;10.00;;;;;17.80;57.40;100683.59;5075624;28;46302;-68
2022/06/15 04:05:27;;;;;;;;;10.50;10.50;;;;;17.80;57.02;100681.81;5077166;27;45322;-68
2022/06/15 04:10:37;;;;;;;;;12.50;9.75;;;;;17.78;57.40;100681.06;5076930;28;45274;-69
2022/06/15 04:13:02;;;;;;;;;10.75;9.50;;;;;17.79;57.17;100681.91;5077021;28;45333;-69
2022/06/15 04:15:28;;;;;;;;;8.00;5.00;;;;;17.75;57.27;100681.28;5077265;27;45384;-68
2022/06/15 04:17:53;;;;;;;;;11.75;9.25;;;;;17.80;57.41;100691.59;5076849;28;45456;-72
2022/06/15 04:20:35;;;;;;;;;10.25;10.00;;;;;17.77;57.53;100686.47;5076913;28;45626;-67
2022/06/15 04:23:08;;;;;;;;;12.00;10.25;;;;;17.77;57.82;100687.34;5076663;27;45766;-71
2022/06/15 04:25:39;;;;;;;;;14.75;11.75;;;;;17.76;57.53;100684.78;5076959;28;45428;-68
2022/06/15 04:28:06;;;;;;;;;10.00;10.00;;;;;17.76;58.07;100687.44;5076802;27;45414;-68
2022/06/15 04:30:32;;;;;;;;;12.00;10.00;;;;;17.71;58.13;100686.91;5077057;28;45339;-69
2022/06/15 04:32:57;;;;;;;;;12.25;12.25;;;;;17.67;57.86;100676.47;5076397;27;46420;-69
2022/06/15 04:35:22;;;;;;;;;11.50;10.50;;;;;17.69;58.22;100686.16;5076522;27;45433;-67
2022/06/15 04:37:48;;;;;;;;;13.00;12.00;;;;;17.69;58.00;100696.78;5076665;28;45347;-69
2022/06/15 04:40:14;;;;;;;;;10.00;10.00;;;;;17.72;57.86;100699.25;5076756;27;45520;-68
2022/06/15 04:42:41;;;;;;;;;13.25;11.50;;;;;17.75;58.05;100689.25;5074912;28;46329;-68
2022/06/15 04:45:07;;;;;;;;;11.75;11.25;;;;;17.77;57.91;100686.47;5076369;27;45363;-69
2022/06/15 04:47:33;;;;;;;;;11.50;10.25;;;;;17.84;57.68;100693.06;5076689;27;45416;-68
2022/06/15 04:49:58;;;;;;;;;14.75;13.75;;;;;17.87;57.35;100692.84;5076283;28;45604;-68
2022/06/15 04:52:23;;;;;;;;;12.25;11.00;;;;;17.93;57.36;100692.44;5076363;28;46255;-68
2022/06/15 04:54:49;;;;;;;;;13.25;11.25;;;;;18.02;56.97;100698.09;5076197;28;45234;-67
2022/06/15 04:57:14;;;;;;;;;14.00;14.00;;;;;18.07;57.44;100701.31;5076552;28;45814;-68
2022/06/15 04:59:40;;;;;;;;;11.00;10.50;;;;;18.23;57.05;100696.63;5076311;28;45624;-68
2022/06/15 05:02:06;;;;;;;;;20.00;15.00;;;;;18.53;56.75;100692.72;5075659;28;47157;-70
2022/06/15 05:04:31;;;;;;;;;13.00;12.50;;;;;18.92;56.19;100697.06;5076262;27;45378;-68
2022/06/15 05:06:56;;;;;;;;;14.50;13.00;;;;;19.39;55.09;100699.84;5076020;28;45472;-69
2022/06/15 05:09:22;;;;;;;;;15.50;12.25;;;;;19.79;54.42;100701.28;5076053;28;45608;-69
2022/06/15 05:11:47;;;;;;;;;13.50;12.00;;;;;20.21;53.20;100709.59;5075530;27;45459;-70
2022/06/15 05:14:13;;;;;;;;;13.75;13.25;;;;;20.61;52.40;100713.56;5075802;27;45531;-70
2022/06/15 05:16:39;;;;;;;;;13.75;13.75;;;;;20.97;51.95;100711.59;5075974;27;45372;-68
2022/06/15 05:19:04;;;;;;;;;13.25;12.00;;;;;21.30;51.06;100700.91;5076269;27;45310;-69
2022/06/15 05:21:30;;;;;;;;;10.50;10.50;;;;;21.70;50.16;100700.22;5075871;28;46272;-68
2022/06/15 05:23:56;;;;;;;;;15.00;13.00;;;;;22.02;49.41;100707.28;5076335;28;45301;-69
2022/06/15 05:26:25;;;;;;;;;15.75;12.50;;;;;22.15;48.67;100703.53;5075361;27;45379;-68
2022/06/15 05:28:51;;;;;;;;;18.75;13.50;;;;;22.21;48.36;100696.81;5075446;27;45230;-68
2022/06/15 05:31:20;;;;;;;;;12.25;12.00;;;;;22.30;48.26;100699.53;5075003;27;46300;-68
2022/06/15 05:33:46;;;;;;;;;12.00;12.00;;;;;22.39;48.09;100702.38;5074217;27;45357;-73
2022/06/15 05:36:16;;;;;;;;;10.75;10.75;;;;;22.46;47.32;100703.56;5073875;28;45732;-72
2022/06/15 05:38:41;;;;;;;;;15.00;13.25;;;;;22.56;47.46;100709.78;5074139;28;45294;-69
2022/06/15 05:41:10;;;;;;;;;11.00;11.00;;;;;22.66;47.10;100709.78;5074672;27;45996;-70
2022/06/15 05:43:40;;;;;;;;;17.25;17.00;;;;;22.67;46.54;100716.84;5075279;27;45504;-72
2022/06/15 05:46:22;;;;;;;;;16.25;14.25;;;;;22.67;46.94;100702.63;5073768;28;45342;-72
2022/06/15 05:48:47;;;;;;;;;15.00;14.00;;;;;22.70;46.80;100710.38;5075249;27;45187;-71
2022/06/15 05:51:12;;;;;;;;;15.00;15.00;;;;;22.69;47.08;100719.41;5074829;27;46151;-72
2022/06/15 05:53:38;;;;;;;;;17.25;14.50;;;;;22.66;46.94;100715.16;5075110;28;45253;-69
2022/06/15 05:56:03;;;;;;;;;15.25;13.00;;;;;22.60;46.88;100699.63;5075819;27;45748;-70
2022/06/15 05:58:29;;;;;;;;;14.00;14.00;;;;;22.50;46.84;100704.97;5075393;27;45272;-71
2022/06/15 06:00:54;;;;;;;;;14.25;13.00;;;;;22.23;46.82;100686.78;5074925;27;46340;-69
2022/06/15 06:03:19;;;;;;;;;15.25;14.00;;;;;22.28;47.59;100709.53;5075301;28;45334;-69
2022/06/15 06:05:45;;;;;;;;;11.50;10.50;;;;;22.16;47.25;100715.94;5075501;28;45293;-68
2022/06/15 06:08:10;;;;;;;;;13.50;13.00;;;;;22.02;47.37;100731.38;5075433;28;45300;-69
2022/06/15 06:10:35;;;;;;;;;14.50;14.50;;;;;21.88;48.10;100726.38;5074851;28;45290;-69
2022/06/15 06:13:01;;;;;;;;;17.50;15.50;;;;;21.76;48.07;100725.63;5074735;27;45241;-70
2022/06/15 06:15:26;;;;;;;;;12.50;12.00;;;;;21.69;48.30;100721.75;5074948;28;45338;-71
2022/06/15 06:17:52;;;;;;;;;19.25;18.00;;;;;21.58;48.50;100728.00;5075004;27;45371;-69
2022/06/15 06:20:17;;;;;;;;;17.25;14.25;;;;;21.42;48.76;100725.75;5073205;28;46908;-70
2022/06/15 06:22:43;;;;;;;;;15.00;15.00;;;;;21.29;48.97;100712.56;5074724;28;45274;-70
2022/06/15 06:25:10;;;;;;;;;16.50;15.50;;;;;21.16;49.96;100724.25;5075113;28;45683;-68
2022/06/15 06:27:36;;;;;;;;;18.00;17.00;;;;;21.08;49.82;100712.53;5075340;27;45579;-69
2022/06/15 06:30:01;;;;;;;;;14.50;14.50;;;;;21.05;49.60;100713.59;5074624;27;47168;-69
2022/06/15 06:32:27;;;;;;;;;17.50;15.00;;;;;20.99;49.81;100708.78;5074610;27;45586;-69
2022/06/15 06:34:55;;;;;;;;;15.00;14.50;;;;;20.99;50.18;100708.78;5074783;27;45259;-69
2022/06/15 06:37:21;;;;;;;;;17.75;16.75;;;;;20.89;50.25;100714.03;5074529;28;45445;-68
2022/06/15 06:39:55;;;;;;;;;18.25;14.50;;;;;20.83;50.20;100710.03;5074280;27;45521;-68
2022/06/15 06:42:20;;;;;;;;;13.50;11.50;;;;;20.84;50.01;100716.25;5073085;28;45680;-69
2022/06/15 06:44:46;;;;;;;;;14.75;13.75;;;;;20.82;50.11;100710.19;5073023;28;45290;-69
2022/06/15 06:47:11;;;;;;;;;12.75;12.75;;;;;20.85;50.08;100716.09;5078597;28;45488;-68
2022/06/15 06:49:37;;;;;;;;;13.75;11.50;;;;;20.86;50.23;100715.13;5077854;27;45501;-70
2022/06/15 06:52:03;;;;;;;;;13.25;13.25;;;;;20.87;50.18;100724.00;5077907;28;45264;-68
2022/06/15 06:54:29;;;;;;;;;11.50;9.75;;;;;20.91;50.16;100721.91;5078174;27;45450;-69
2022/06/15 06:56:55;;;;;;;;;17.75;15.25;;;;;20.96;50.19;100723.25;5078227;28;45445;-69
2022/06/15 06:59:20;;;;;;;;;19.25;16.50;;;;;21.08;50.25;100732.06;5077659;28;45412;-69
2022/06/15 07:01:47;;;;;;;;;15.00;12.75;;;;;21.14;49.92;100726.22;5077848;27;45398;-69
2022/06/15 07:04:14;;;;;;;;;14.75;14.00;;;;;21.20;50.02;100737.38;5077887;27;45196;-69
2022/06/15 07:06:41;;;;;;;;;17.25;15.75;;;;;21.27;49.79;100727.91;5078307;27;45239;-68
2022/06/15 07:09:06;;;;;;;;;14.50;12.75;;;;;21.36;49.85;100736.97;5076485;28;45433;-70
2022/06/15 07:11:32;;;;;;;;;15.50;14.00;;;;;21.45;49.47;100725.50;5075970;28;45432;-69
2022/06/15 07:13:59;;;;;;;;;14.50;12.25;;;;;21.47;49.37;100723.53;5077643;28;45347;-70
2022/06/15 07:16:24;;;;;;;;;13.50;13.50;;;;;21.53;49.48;100720.34;5077569;27;45404;-69
2022/06/15 07:18:50;;;;;;;;;12.75;12.75;;;;;21.58;48.98;100709.25;5077127;27;45423;-69
2022/06/15 07:21:18;;;;;;;;;16.25;14.00;;;;;21.68;48.75;100725.41;5077324;28;45310;-68
2022/06/15 07:23:46;;;;;;;;;10.75;9.50;;;;;21.78;48.60;100720.13;5077137;27;45284;-69
2022/06/15 07:26:15;;;;;;;;;12.00;10.50;;;;;21.92;48.12;100726.97;5077766;27;45449;-69
2022/06/15 07:28:42;;;;;;;;;13.75;12.25;;;;;22.00;47.56;100724.47;5077409;27;46665;-68
2022/06/15 07:31:08;;;;;;;;;14.50;10.00;;;;;22.09;47.39;100730.84;5077163;27;45280;-71
2022/06/15 07:33:35;;;;;;;;;12.25;12.25;;;;;22.16;47.81;100746.28;5077324;27;45307;-69
2022/06/15 07:36:01;;;;;;;;;17.00;13.00;;;;;22.24;48.07;100750.94;5077388;27;45623;-68
2022/06/15 07:38:26;;;;;;;;;17.75;13.75;;;;;22.33;47.82;100736.78;5075343;28;47976;-69
2022/06/15 07:40:52;;;;;;;;;10.00;10.00;;;;;22.42;46.97;100728.91;5077083;27;45354;-71
2022/06/15 07:43:19;;;;;;;;;14.50;10.00;;;;;22.53;47.20;100739.56;5076967;27;45334;-67
2022/06/15 07:45:44;;;;;;;;;15.50;9.75;;;;;22.63;46.35;100741.41;5076984;27;45477;-67
2022/06/15 07:50:53;;;;;;;;;9.25;7.25;;;;;22.76;45.51;100739.31;5076749;28;45954;-69
2022/06/15 07:53:20;;;;;;;;;12.25;9.00;;;;;22.77;45.80;100739.16;5076819;28;45361;-69
2022/06/15 07:55:47;;;;;;;;;12.25;11.25;;;;;22.88;45.43;100746.25;5076907;27;45423;-71
2022/06/15 07:58:13;;;;;;;;;8.75;7.50;;;;;22.96;45.25;100742.03;5076036;28;46468;-72
2022/06/15 08:00:41;;;;;;;;;7.00;5.50;;;;;22.94;45.29;100733.28;5076564;27;45313;-69
2022/06/15 08:03:09;;;;;;;;;11.25;8.00;;;;;22.98;44.74;100734.69;5076761;27;45487;-69
2022/06/15 08:05:39;;;;;;;;;8.50;8.50;;;;;23.06;44.65;100729.47;5076896;27;45722;-68
2022/06/15 08:08:08;;;;;;;;;8.00;8.00;;;;;23.13;44.01;100735.97;5076386;27;45417;-69
2022/06/15 08:10:34;;;;;;;;;8.50;8.50;;;;;23.32;44.01;100734.31;5076356;27;45305;-69
2022/06/15 08:12:59;;;;;;;;;10.75;8.00;;;;;23.43;43.48;100734.22;5076506;27;45519;-68
2022/06/15 08:15:25;;;;;;;;;8.50;8.50;;;;;23.53;43.04;100736.03;5076718;27;45388;-69
2022/06/15 08:17:54;;;;;;;;;7.50;7.00;;;;;23.58;43.52;100729.22;5076287;28;45542;-70
2022/06/15 08:20:29;;;;;;;;;8.50;6.75;;;;;23.70;43.36;100729.94;5076335;27;45267;-69
2022/06/15 08:23:01;;;;;;;;;7.00;7.00;;;;;23.90;43.63;100730.75;5075105;28;45283;-67
2022/06/15 08:25:33;;;;;;;;;7.00;6.50;;;;;24.12;41.77;100728.72;5076519;27;45406;-70
2022/06/15 08:27:59;;;;;;;;;19.25;14.75;;;;;24.28;42.15;100719.19;5076224;28;46453;-73
2022/06/15 08:30:27;;;;;;;;;8.25;8.25;;;;;24.63;41.60;100731.88;5076399;27;45283;-69
2022/06/15 08:32:53;;;;;;;;;7.50;6.75;;;;;24.88;41.29;100724.13;5074992;28;45363;-68
2022/06/15 08:35:18;;;;;;;;;12.25;10.00;;;;;24.98;41.83;100705.22;5076186;27;45381;-70
2022/06/15 08:37:44;;;;;;;;;7.00;6.50;;;;;25.38;41.01;100724.56;5076291;28;46445;-68
2022/06/15 08:40:11;;;;;;;;;7.00;7.00;;;;;25.58;39.80;100724.44;5076143;27;45277;-68
2022/06/15 08:42:55;;;;;;;;;12.50;11.00;;;;;25.85;40.31;100723.44;5076249;27;45339;-69
2022/06/15 08:45:49;;;;;;;;;14.25;11.00;;;;;26.23;39.51;100734.81;5076498;27;45330;-69
2022/06/15 08:48:34;;;;;;;;;8.75;8.75;;;;;26.54;38.68;100733.44;5074816;28;45811;-68
2022/06/15 08:51:15;;;;;;;;;9.50;8.75;;;;;26.68;37.40;100723.84;5076114;28;45426;-70
2022/06/15 08:53:51;;;;;;;;;8.00;8.00;;;;;26.87;37.74;100730.00;5075973;28;45330;-68
2022/06/15 08:56:34;;;;;;;;;9.75;9.00;;;;;27.11;36.16;100732.75;5076445;27;45433;-68
2022/06/15 08:59:25;;;;;;;;;9.75;9.75;;;;;27.08;35.31;100721.44;5075746;28;46582;-68
2022/06/15 09:02:02;;;;;;;;;6.75;6.75;;;;;26.84;35.47;100725.78;5075886;28;45362;-69
2022/06/15 09:04:40;;;;;;;;;9.00;9.00;;;;;26.60;36.17;100727.38;5075927;28;45385;-70
2022/06/15 09:07:25;;;;;;;;;9.50;8.50;;;;;26.57;34.75;100716.91;5075670;27;45493;-69
2022/06/15 09:10:08;;;;;;;;;8.50;8.50;;;;;26.58;34.88;100720.44;5075329;28;45438;-69
2022/06/15 09:13:01;;;;;;;;;9.50;7.75;;;;;26.63;34.92;100726.19;5075403;28;45306;-67
2022/06/15 09:15:43;;;;;;;;;10.75;9.00;;;;;26.57;34.48;100719.63;5075529;27;45220;-69
2022/06/15 09:18:15;;;;;;;;;13.00;11.75;;;;;26.51;34.69;100710.31;5075975;27;45346;-68
2022/06/15 09:20:50;;;;;;;;;11.00;9.75;;;;;26.69;34.93;100717.44;5074055;28;46062;-69
2022/06/15 09:23:23;;;;;;;;;9.75;9.00;;;;;26.89;35.08;100727.97;5073957;28;45398;-70
2022/06/15 09:25:56;;;;;;;;;10.00;10.00;;;;;27.14;34.82;100728.84;5075411;27;45544;-69
2022/06/15 09:28:33;;;;;;;;;12.00;8.75;;;;;27.38;34.87;100729.88;5074006;28;45259;-70
2022/06/15 09:31:05;;;;;;;;;11.00;11.00;;;;;27.60;34.53;100723.00;5075312;27;46472;-68
2022/06/15 09:33:47;;;;;;;;;11.25;10.00;;;;;27.62;35.12;100725.53;5073176;28;45377;-68
2022/06/15 09:36:18;;;;;;;;;10.50;10.50;;;;;27.65;34.65;100722.50;5073484;28;45359;-72
2022/06/15 09:38:44;;;;;;;;;11.75;11.75;;;;;27.74;33.58;100726.00;5073858;28;45507;-69
2022/06/15 09:41:20;;;;;;;;;11.50;11.00;;;;;27.92;33.14;100733.91;5075356;27;45441;-73
2022/06/15 09:44:19;;;;;;;;;29.50;28.00;;;;;28.05;33.01;100728.81;5075539;27;45346;-70
2022/06/15 09:46:50;;;;;;;;;10.00;9.50;;;;;28.23;33.19;100731.34;5075319;28;45416;-70
2022/06/15 09:49:31;;;;;;;;;12.00;10.75;;;;;28.32;33.02;100723.19;5074051;28;45270;-69
2022/06/15 09:52:29;;;;;;;;;7.50;7.25;;;;;28.31;32.65;100710.69;5074806;27;46166;-68
2022/06/15 09:55:07;;;;;;;;;17.75;14.75;;;;;28.32;32.61;100721.31;5074768;28;45393;-68
2022/06/15 09:57:34;;;;;;;;;12.75;11.75;;;;;28.26;32.57;100716.59;5074498;27;45302;-69
2022/06/15 10:00:03;;;;;;;;;15.50;15.50;;;;;28.22;33.20;100710.72;5074560;27;45326;-69
2022/06/15 10:02:33;;;;;;;;;14.75;13.25;;;;;28.26;32.58;100711.19;5072938;28;48062;-69
2022/06/15 10:05:00;;;;;;;;;14.75;13.75;;;;;28.24;33.05;100713.22;5074679;27;45213;-68
2022/06/15 10:07:30;;;;;;;;;11.25;8.75;;;;;28.20;33.05;100714.59;5074432;28;45308;-72
2022/06/15 10:10:12;;;;;;;;;6.25;6.00;;;;;28.13;32.48;100720.72;5074245;27;45345;-68
2022/06/15 10:13:02;;;;;;;;;12.00;12.00;;;;;28.06;33.03;100713.41;5074172;27;46291;-69
2022/06/15 10:15:33;;;;;;;;;9.00;9.00;;;;;28.08;33.21;100716.78;5072682;28;45755;-69
2022/06/15 10:18:14;;;;;;;;;9.25;9.25;;;;;28.10;33.77;100721.03;5074384;28;45436;-68
2022/06/15 10:20:41;;;;;;;;;10.00;8.75;;;;;28.07;33.90;100723.22;5073742;27;45346;-69
2022/06/15 10:23:20;;;;;;;;;13.25;13.00;;;;;28.08;33.43;100720.34;5074556;27;46511;-70
2022/06/15 10:25:53;;;;;;;;;12.00;11.25;;;;;28.10;33.38;100722.88;5074526;27;45477;-68
2022/06/15 10:28:32;;;;;;;;;11.00;11.00;;;;;28.04;33.85;100721.72;5074893;28;45287;-69
2022/06/15 10:31:02;;;;;;;;;12.00;10.00;;;;;28.05;33.84;100723.41;5074729;27;45240;-69
2022/06/15 10:33:37;;;;;;;;;10.50;10.00;;;;;28.05;33.40;100726.13;5074604;27;46176;-69
2022/06/15 10:36:15;;;;;;;;;9.25;8.00;;;;;28.05;33.80;100723.41;5074615;27;45354;-68
2022/06/15 10:38:49;;;;;;;;;8.25;8.25;;;;;28.06;33.89;100726.94;5074324;27;45477;-69
2022/06/15 10:43:59;;;;;;;;;10.00;10.00;;;;;28.21;33.83;100711.72;5074136;28;45845;-68
2022/06/15 10:46:25;;;;;;;;;6.75;6.75;;;;;28.28;33.82;100725.38;5074120;28;45394;-70
2022/06/15 10:48:56;;;;;;;;;10.50;9.75;;;;;28.29;33.94;100721.66;5072793;28;45384;-69
2022/06/15 10:51:32;;;;;;;;;10.50;10.50;;;;;28.41;33.45;100717.53;5072711;28;45443;-69
2022/06/15 10:54:32;;;;;;;;;12.25;11.25;;;;;28.47;33.37;100723.28;5073648;27;46256;-69
2022/06/15 11:03:09;;;;;;;;;11.00;9.50;;;;;28.35;33.70;100729.06;5074269;28;45271;-69
2022/06/15 11:05:34;;;;;;;;;9.50;9.50;;;;;28.34;33.20;100711.16;5073695;27;45323;-69
2022/06/15 11:08:06;;;;;;;;;10.25;9.75;;;;;28.41;33.25;100717.53;5073774;27;45377;-68
2022/06/15 11:10:39;;;;;;;;;10.50;10.50;;;;;28.43;33.00;100720.91;5073859;27;45299;-68
2022/06/15 11:13:19;;;;;;;;;8.50;8.50;;;;;28.50;33.47;100715.66;5074191;27;45541;-69
2022/06/15 11:18:37;;;;;;;;;10.00;10.00;;;;;28.57;32.55;100721.19;5073934;28;45531;-68
2022/06/15 11:21:14;;;;;;;;;14.00;12.75;;;;;28.67;33.51;100720.97;5072655;28;45279;-68
2022/06/15 11:24:04;;;;;;;;;10.00;10.00;;;;;28.83;32.46;100717.38;5074491;27;45412;-71
2022/06/15 11:26:52;;;;;;;;;10.75;10.75;;;;;28.96;32.40;100717.63;5073867;28;46084;-68
2022/06/15 11:29:52;;;;;;;;;9.25;7.75;;;;;29.07;32.07;100726.34;5073830;27;45360;-68
2022/06/15 11:32:37;;;;;;;;;9.50;9.50;;;;;29.10;32.53;100715.97;5051535;28;45357;-68
2022/06/15 11:35:08;;;;;;;;;14.50;11.50;;;;;29.19;32.73;100714.06;5076221;28;45355;-69
2022/06/15 11:38:10;;;;;;;;;13.75;12.75;;;;;29.31;32.09;100711.78;5077334;28;46319;-69
2022/06/15 11:41:21;;;;;;;;;12.00;12.00;;;;;29.45;32.22;100718.28;5077089;27;45414;-69
2022/06/15 11:43:50;;;;;;;;;13.00;10.25;;;;;29.39;32.15;100708.16;5070043;28;45327;-69
2022/06/15 11:46:26;;;;;;;;;12.25;10.25;;;;;29.49;31.89;100716.88;5077172;27;45541;-68
2022/06/15 11:48:59;;;;;;;;;10.00;9.25;;;;;29.56;32.14;100709.69;5077642;27;46372;-69
2022/06/15 11:51:49;;;;;;;;;11.00;11.00;;;;;29.61;31.85;100714.59;5075562;28;45436;-68